sensor_id;sensor_type;location;lat;lon;timestamp;P1;durP1;ratioP1;P2;durP2;ratioP2
72301;SDS011;60235;52.234;5.186;2023-08-12T00:02:09;11.57;;;3.30;;
72301;SDS011;60235;52.234;5.186;2023-08-12T00:04:35;10.25;;;3.08;;
72301;SDS011;60235;52.234;5.186;2023-08-12T00:07:01;10.07;;;3.60;;
72301;SDS011;60235;52.234;5.186;2023-08-12T00:09:27;9.60;;;3.40;;
72301;SDS011;60235;52.234;5.186;2023-08-12T00:11:53;8.88;;;2.92;;
72301;SDS011;60235;52.234;5.186;2023-08-12T00:14:19;8.13;;;2.97;;
72301;SDS011;60235;52.234;5.186;2023-08-12T00:16:45;11.48;;;3.30;;
72301;SDS011;60235;52.234;5.186;2023-08-12T00:19:11;9.00;;;3.53;;
72301;SDS011;60235;52.234;5.186;2023-08-12T00:21:38;9.73;;;3.80;;
72301;SDS011;60235;52.234;5.186;2023-08-12T00:24:04;10.55;;;3.38;;
72301;SDS011;60235;52.234;5.186;2023-08-12T00:26:30;11.65;;;3.40;;
72301;SDS011;60235;52.234;5.186;2023-08-12T00:28:56;9.77;;;3.30;;
72301;SDS011;60235;52.234;5.186;2023-08-12T00:31:22;12.02;;;3.45;;
72301;SDS011;60235;52.234;5.186;2023-08-12T00:33:48;9.30;;;3.42;;
72301;SDS011;60235;52.234;5.186;2023-08-12T00:36:14;10.95;;;3.45;;
72301;SDS011;60235;52.234;5.186;2023-08-12T00:38:40;9.95;;;4.40;;
72301;SDS011;60235;52.234;5.186;2023-08-12T00:41:06;13.52;;;3.72;;
72301;SDS011;60235;52.234;5.186;2023-08-12T00:43:32;12.05;;;4.05;;
72301;SDS011;60235;52.234;5.186;2023-08-12T00:45:58;10.13;;;4.15;;
72301;SDS011;60235;52.234;5.186;2023-08-12T00:48:24;14.20;;;4.38;;
72301;SDS011;60235;52.234;5.186;2023-08-12T00:50:51;10.30;;;3.60;;
72301;SDS011;60235;52.234;5.186;2023-08-12T00:53:17;9.73;;;4.28;;
72301;SDS011;60235;52.234;5.186;2023-08-12T00:55:43;14.32;;;4.40;;
72301;SDS011;60235;52.234;5.186;2023-08-12T00:58:09;11.82;;;3.70;;
72301;SDS011;60235;52.234;5.186;2023-08-12T01:00:35;10.20;;;4.05;;
72301;SDS011;60235;52.234;5.186;2023-08-12T01:03:02;12.38;;;4.65;;
72301;SDS011;60235;52.234;5.186;2023-08-12T01:05:29;19.10;;;4.97;;
72301;SDS011;60235;52.234;5.186;2023-08-12T01:07:56;14.85;;;5.32;;
72301;SDS011;60235;52.234;5.186;2023-08-12T01:10:22;16.27;;;5.05;;
72301;SDS011;60235;52.234;5.186;2023-08-12T01:15:15;15.90;;;5.05;;
72301;SDS011;60235;52.234;5.186;2023-08-12T01:17:46;14.98;;;5.70;;
72301;SDS011;60235;52.234;5.186;2023-08-12T01:20:17;14.77;;;5.07;;
72301;SDS011;60235;52.234;5.186;2023-08-12T01:22:49;14.38;;;5.25;;
72301;SDS011;60235;52.234;5.186;2023-08-12T01:25:18;11.35;;;4.80;;
72301;SDS011;60235;52.234;5.186;2023-08-12T01:27:44;12.68;;;5.38;;
72301;SDS011;60235;52.234;5.186;2023-08-12T01:30:10;11.95;;;5.15;;
72301;SDS011;60235;52.234;5.186;2023-08-12T01:32:45;14.07;;;4.90;;
72301;SDS011;60235;52.234;5.186;2023-08-12T01:35:20;14.23;;;5.40;;
72301;SDS011;60235;52.234;5.186;2023-08-12T01:37:50;16.77;;;5.55;;
72301;SDS011;60235;52.234;5.186;2023-08-12T01:40:17;11.93;;;4.88;;
72301;SDS011;60235;52.234;5.186;2023-08-12T01:42:44;13.93;;;5.20;;
72301;SDS011;60235;52.234;5.186;2023-08-12T01:45:11;16.33;;;5.70;;
72301;SDS011;60235;52.234;5.186;2023-08-12T01:47:37;13.80;;;5.28;;
72301;SDS011;60235;52.234;5.186;2023-08-12T01:50:03;16.88;;;6.07;;
72301;SDS011;60235;52.234;5.186;2023-08-12T01:52:29;12.80;;;5.13;;
72301;SDS011;60235;52.234;5.186;2023-08-12T01:54:55;13.43;;;4.97;;
72301;SDS011;60235;52.234;5.186;2023-08-12T01:57:21;13.77;;;5.25;;
72301;SDS011;60235;52.234;5.186;2023-08-12T01:59:47;12.27;;;5.00;;
72301;SDS011;60235;52.234;5.186;2023-08-12T02:02:13;15.35;;;5.60;;
72301;SDS011;60235;52.234;5.186;2023-08-12T02:04:39;12.38;;;5.32;;
72301;SDS011;60235;52.234;5.186;2023-08-12T02:07:07;14.30;;;5.28;;
72301;SDS011;60235;52.234;5.186;2023-08-12T02:09:33;15.68;;;5.95;;
72301;SDS011;60235;52.234;5.186;2023-08-12T02:11:59;13.13;;;5.63;;
72301;SDS011;60235;52.234;5.186;2023-08-12T02:14:25;18.10;;;6.13;;
72301;SDS011;60235;52.234;5.186;2023-08-12T02:16:51;15.55;;;5.75;;
72301;SDS011;60235;52.234;5.186;2023-08-12T02:19:17;16.83;;;5.35;;
72301;SDS011;60235;52.234;5.186;2023-08-12T02:21:44;14.18;;;5.97;;
72301;SDS011;60235;52.234;5.186;2023-08-12T02:24:10;14.68;;;5.13;;
72301;SDS011;60235;52.234;5.186;2023-08-12T02:26:36;15.40;;;5.45;;
72301;SDS011;60235;52.234;5.186;2023-08-12T02:29:02;15.05;;;6.20;;
72301;SDS011;60235;52.234;5.186;2023-08-12T02:31:28;13.50;;;5.93;;
72301;SDS011;60235;52.234;5.186;2023-08-12T02:33:54;15.45;;;5.97;;
72301;SDS011;60235;52.234;5.186;2023-08-12T02:36:20;13.20;;;5.72;;
72301;SDS011;60235;52.234;5.186;2023-08-12T02:38:46;16.20;;;6.13;;
72301;SDS011;60235;52.234;5.186;2023-08-12T02:41:12;16.77;;;6.07;;
72301;SDS011;60235;52.234;5.186;2023-08-12T02:43:38;17.90;;;6.35;;
72301;SDS011;60235;52.234;5.186;2023-08-12T02:46:04;18.05;;;6.65;;
72301;SDS011;60235;52.234;5.186;2023-08-12T02:48:30;18.08;;;6.63;;
72301;SDS011;60235;52.234;5.186;2023-08-12T02:50:56;16.00;;;6.85;;
72301;SDS011;60235;52.234;5.186;2023-08-12T02:53:22;22.38;;;8.00;;
72301;SDS011;60235;52.234;5.186;2023-08-12T02:55:48;17.42;;;7.45;;
72301;SDS011;60235;52.234;5.186;2023-08-12T02:58:14;20.48;;;7.75;;
72301;SDS011;60235;52.234;5.186;2023-08-12T03:00:41;19.35;;;7.65;;
72301;SDS011;60235;52.234;5.186;2023-08-12T03:03:08;22.23;;;8.13;;
72301;SDS011;60235;52.234;5.186;2023-08-12T03:05:34;22.35;;;8.35;;
72301;SDS011;60235;52.234;5.186;2023-08-12T03:08:01;21.73;;;8.77;;
72301;SDS011;60235;52.234;5.186;2023-08-12T03:10:28;22.40;;;8.80;;
72301;SDS011;60235;52.234;5.186;2023-08-12T03:12:54;21.92;;;8.73;;
72301;SDS011;60235;52.234;5.186;2023-08-12T03:15:20;18.77;;;8.63;;
72301;SDS011;60235;52.234;5.186;2023-08-12T03:17:46;21.38;;;8.40;;
72301;SDS011;60235;52.234;5.186;2023-08-12T03:20:12;20.15;;;8.30;;
72301;SDS011;60235;52.234;5.186;2023-08-12T03:22:38;19.75;;;7.85;;
72301;SDS011;60235;52.234;5.186;2023-08-12T03:25:05;18.10;;;8.77;;
72301;SDS011;60235;52.234;5.186;2023-08-12T03:27:31;23.77;;;8.43;;
72301;SDS011;60235;52.234;5.186;2023-08-12T03:29:57;19.08;;;7.72;;
72301;SDS011;60235;52.234;5.186;2023-08-12T03:32:24;17.80;;;8.32;;
72301;SDS011;60235;52.234;5.186;2023-08-12T03:34:50;18.75;;;8.43;;
72301;SDS011;60235;52.234;5.186;2023-08-12T03:37:16;21.27;;;8.55;;
72301;SDS011;60235;52.234;5.186;2023-08-12T03:39:42;24.65;;;8.25;;
72301;SDS011;60235;52.234;5.186;2023-08-12T03:42:08;21.48;;;9.05;;
72301;SDS011;60235;52.234;5.186;2023-08-12T03:44:34;23.15;;;8.80;;
72301;SDS011;60235;52.234;5.186;2023-08-12T03:47:00;19.67;;;8.70;;
72301;SDS011;60235;52.234;5.186;2023-08-12T03:49:26;24.13;;;8.43;;
72301;SDS011;60235;52.234;5.186;2023-08-12T03:51:52;17.75;;;8.27;;
72301;SDS011;60235;52.234;5.186;2023-08-12T03:54:18;24.83;;;9.43;;
72301;SDS011;60235;52.234;5.186;2023-08-12T03:56:44;23.15;;;9.50;;
72301;SDS011;60235;52.234;5.186;2023-08-12T03:59:10;21.80;;;9.13;;
72301;SDS011;60235;52.234;5.186;2023-08-12T04:01:36;24.42;;;10.27;;
72301;SDS011;60235;52.234;5.186;2023-08-12T04:04:03;20.65;;;9.77;;
72301;SDS011;60235;52.234;5.186;2023-08-12T04:06:29;22.15;;;9.40;;
72301;SDS011;60235;52.234;5.186;2023-08-12T04:08:55;24.80;;;11.18;;
72301;SDS011;60235;52.234;5.186;2023-08-12T04:11:21;25.05;;;10.00;;
72301;SDS011;60235;52.234;5.186;2023-08-12T04:13:47;24.05;;;10.00;;
72301;SDS011;60235;52.234;5.186;2023-08-12T04:16:13;21.45;;;9.88;;
72301;SDS011;60235;52.234;5.186;2023-08-12T04:18:39;20.50;;;9.35;;
72301;SDS011;60235;52.234;5.186;2023-08-12T04:21:05;22.10;;;9.93;;
72301;SDS011;60235;52.234;5.186;2023-08-12T04:23:31;25.23;;;10.38;;
72301;SDS011;60235;52.234;5.186;2023-08-12T04:25:57;25.67;;;10.75;;
72301;SDS011;60235;52.234;5.186;2023-08-12T04:28:23;25.88;;;10.30;;
72301;SDS011;60235;52.234;5.186;2023-08-12T04:30:49;22.35;;;10.23;;
72301;SDS011;60235;52.234;5.186;2023-08-12T04:33:18;21.83;;;9.52;;
72301;SDS011;60235;52.234;5.186;2023-08-12T04:35:47;26.67;;;9.85;;
72301;SDS011;60235;52.234;5.186;2023-08-12T04:38:13;22.85;;;10.10;;
72301;SDS011;60235;52.234;5.186;2023-08-12T04:40:40;21.52;;;10.27;;
72301;SDS011;60235;52.234;5.186;2023-08-12T04:43:09;22.52;;;9.80;;
72301;SDS011;60235;52.234;5.186;2023-08-12T04:45:36;20.77;;;10.30;;
72301;SDS011;60235;52.234;5.186;2023-08-12T04:48:03;26.55;;;10.80;;
72301;SDS011;60235;52.234;5.186;2023-08-12T04:50:29;21.92;;;11.45;;
72301;SDS011;60235;52.234;5.186;2023-08-12T04:52:56;23.35;;;11.05;;
72301;SDS011;60235;52.234;5.186;2023-08-12T04:55:22;21.30;;;9.60;;
72301;SDS011;60235;52.234;5.186;2023-08-12T04:57:48;26.67;;;10.95;;
72301;SDS011;60235;52.234;5.186;2023-08-12T05:00:14;22.48;;;10.55;;
72301;SDS011;60235;52.234;5.186;2023-08-12T05:02:40;21.20;;;10.38;;
72301;SDS011;60235;52.234;5.186;2023-08-12T05:05:06;23.17;;;10.23;;
72301;SDS011;60235;52.234;5.186;2023-08-12T05:07:32;24.75;;;11.35;;
72301;SDS011;60235;52.234;5.186;2023-08-12T05:09:59;21.52;;;10.00;;
72301;SDS011;60235;52.234;5.186;2023-08-12T05:12:25;22.92;;;9.80;;
72301;SDS011;60235;52.234;5.186;2023-08-12T05:14:51;21.20;;;10.05;;
72301;SDS011;60235;52.234;5.186;2023-08-12T05:17:17;25.85;;;10.98;;
72301;SDS011;60235;52.234;5.186;2023-08-12T05:19:43;23.35;;;10.43;;
72301;SDS011;60235;52.234;5.186;2023-08-12T05:22:09;23.98;;;10.68;;
72301;SDS011;60235;52.234;5.186;2023-08-12T05:24:35;24.23;;;11.02;;
72301;SDS011;60235;52.234;5.186;2023-08-12T05:27:01;25.67;;;10.50;;
72301;SDS011;60235;52.234;5.186;2023-08-12T05:29:29;26.25;;;10.52;;
72301;SDS011;60235;52.234;5.186;2023-08-12T05:31:55;22.10;;;10.43;;
72301;SDS011;60235;52.234;5.186;2023-08-12T05:34:21;26.08;;;11.10;;
72301;SDS011;60235;52.234;5.186;2023-08-12T05:36:47;20.08;;;9.98;;
72301;SDS011;60235;52.234;5.186;2023-08-12T05:39:13;25.42;;;10.63;;
72301;SDS011;60235;52.234;5.186;2023-08-12T05:41:40;19.30;;;10.60;;
72301;SDS011;60235;52.234;5.186;2023-08-12T05:44:06;23.58;;;10.30;;
72301;SDS011;60235;52.234;5.186;2023-08-12T05:46:32;29.25;;;11.48;;
72301;SDS011;60235;52.234;5.186;2023-08-12T05:48:58;24.65;;;10.68;;
72301;SDS011;60235;52.234;5.186;2023-08-12T05:51:24;32.08;;;12.27;;
72301;SDS011;60235;52.234;5.186;2023-08-12T05:53:51;23.83;;;10.52;;
72301;SDS011;60235;52.234;5.186;2023-08-12T05:56:17;29.42;;;12.02;;
72301;SDS011;60235;52.234;5.186;2023-08-12T05:58:43;26.02;;;11.73;;
72301;SDS011;60235;52.234;5.186;2023-08-12T06:01:09;24.27;;;12.13;;
72301;SDS011;60235;52.234;5.186;2023-08-12T06:03:35;28.65;;;13.10;;
72301;SDS011;60235;52.234;5.186;2023-08-12T06:06:01;24.52;;;11.80;;
72301;SDS011;60235;52.234;5.186;2023-08-12T06:08:27;25.52;;;12.80;;
72301;SDS011;60235;52.234;5.186;2023-08-12T06:10:52;27.95;;;13.70;;
72301;SDS011;60235;52.234;5.186;2023-08-12T06:13:18;29.08;;;13.70;;
72301;SDS011;60235;52.234;5.186;2023-08-12T06:15:45;27.63;;;12.45;;
72301;SDS011;60235;52.234;5.186;2023-08-12T06:18:11;27.08;;;12.90;;
72301;SDS011;60235;52.234;5.186;2023-08-12T06:20:37;23.85;;;13.23;;
72301;SDS011;60235;52.234;5.186;2023-08-12T06:23:03;33.75;;;14.43;;
72301;SDS011;60235;52.234;5.186;2023-08-12T06:25:29;24.90;;;12.63;;
72301;SDS011;60235;52.234;5.186;2023-08-12T06:27:55;31.02;;;13.05;;
72301;SDS011;60235;52.234;5.186;2023-08-12T06:30:23;31.25;;;12.73;;
72301;SDS011;60235;52.234;5.186;2023-08-12T06:32:49;24.10;;;10.85;;
72301;SDS011;60235;52.234;5.186;2023-08-12T06:35:15;20.75;;;9.25;;
72301;SDS011;60235;52.234;5.186;2023-08-12T06:37:41;20.33;;;9.55;;
72301;SDS011;60235;52.234;5.186;2023-08-12T06:40:07;20.65;;;9.43;;
72301;SDS011;60235;52.234;5.186;2023-08-12T06:42:33;16.23;;;8.30;;
72301;SDS011;60235;52.234;5.186;2023-08-12T06:45:00;17.88;;;7.43;;
72301;SDS011;60235;52.234;5.186;2023-08-12T06:49:54;18.45;;;8.23;;
72301;SDS011;60235;52.234;5.186;2023-08-12T06:52:21;15.65;;;7.82;;
72301;SDS011;60235;52.234;5.186;2023-08-12T06:54:47;15.35;;;7.15;;
72301;SDS011;60235;52.234;5.186;2023-08-12T06:57:13;12.93;;;6.20;;
72301;SDS011;60235;52.234;5.186;2023-08-12T06:59:39;11.43;;;5.60;;
72301;SDS011;60235;52.234;5.186;2023-08-12T07:02:06;10.15;;;4.32;;
72301;SDS011;60235;52.234;5.186;2023-08-12T07:04:32;11.60;;;4.13;;
72301;SDS011;60235;52.234;5.186;2023-08-12T07:06:59;9.30;;;4.45;;
72301;SDS011;60235;52.234;5.186;2023-08-12T07:09:25;9.82;;;3.25;;
72301;SDS011;60235;52.234;5.186;2023-08-12T07:11:51;10.20;;;3.70;;
72301;SDS011;60235;52.234;5.186;2023-08-12T07:14:17;8.35;;;3.30;;
72301;SDS011;60235;52.234;5.186;2023-08-12T07:16:43;9.35;;;3.70;;
72301;SDS011;60235;52.234;5.186;2023-08-12T07:19:09;7.20;;;2.80;;
72301;SDS011;60235;52.234;5.186;2023-08-12T07:21:35;9.73;;;3.35;;
72301;SDS011;60235;52.234;5.186;2023-08-12T07:24:01;7.72;;;3.22;;
72301;SDS011;60235;52.234;5.186;2023-08-12T07:26:27;8.68;;;3.30;;
72301;SDS011;60235;52.234;5.186;2023-08-12T07:28:53;6.82;;;2.83;;
72301;SDS011;60235;52.234;5.186;2023-08-12T07:31:19;7.03;;;2.67;;
72301;SDS011;60235;52.234;5.186;2023-08-12T07:33:45;7.38;;;3.20;;
72301;SDS011;60235;52.234;5.186;2023-08-12T07:36:11;6.10;;;2.53;;
72301;SDS011;60235;52.234;5.186;2023-08-12T07:38:37;7.47;;;3.25;;
72301;SDS011;60235;52.234;5.186;2023-08-12T07:41:03;6.20;;;2.60;;
72301;SDS011;60235;52.234;5.186;2023-08-12T07:43:29;7.13;;;2.80;;
72301;SDS011;60235;52.234;5.186;2023-08-12T07:45:55;7.40;;;2.60;;
72301;SDS011;60235;52.234;5.186;2023-08-12T07:48:21;5.95;;;2.63;;
72301;SDS011;60235;52.234;5.186;2023-08-12T07:50:47;6.95;;;3.20;;
72301;SDS011;60235;52.234;5.186;2023-08-12T07:53:14;8.05;;;2.85;;
72301;SDS011;60235;52.234;5.186;2023-08-12T07:55:40;7.90;;;3.30;;
72301;SDS011;60235;52.234;5.186;2023-08-12T07:58:06;10.95;;;3.90;;
72301;SDS011;60235;52.234;5.186;2023-08-12T08:00:32;6.63;;;2.63;;
72301;SDS011;60235;52.234;5.186;2023-08-12T08:02:59;6.03;;;2.10;;
72301;SDS011;60235;52.234;5.186;2023-08-12T08:05:25;7.13;;;2.60;;
72301;SDS011;60235;52.234;5.186;2023-08-12T08:07:51;5.47;;;2.05;;
72301;SDS011;60235;52.234;5.186;2023-08-12T08:10:17;6.95;;;2.25;;
72301;SDS011;60235;52.234;5.186;2023-08-12T08:12:42;6.65;;;2.30;;
72301;SDS011;60235;52.234;5.186;2023-08-12T08:15:09;5.10;;;2.03;;
72301;SDS011;60235;52.234;5.186;2023-08-12T08:17:35;5.18;;;1.90;;
72301;SDS011;60235;52.234;5.186;2023-08-12T08:20:01;5.82;;;1.83;;
72301;SDS011;60235;52.234;5.186;2023-08-12T08:22:28;5.45;;;1.90;;
72301;SDS011;60235;52.234;5.186;2023-08-12T08:24:54;6.13;;;2.33;;
72301;SDS011;60235;52.234;5.186;2023-08-12T08:27:20;5.28;;;1.33;;
72301;SDS011;60235;52.234;5.186;2023-08-12T08:29:45;5.13;;;1.67;;
72301;SDS011;60235;52.234;5.186;2023-08-12T08:32:12;4.88;;;1.58;;
72301;SDS011;60235;52.234;5.186;2023-08-12T08:34:38;4.00;;;1.40;;
72301;SDS011;60235;52.234;5.186;2023-08-12T08:37:04;4.45;;;1.45;;
72301;SDS011;60235;52.234;5.186;2023-08-12T08:39:30;6.63;;;2.50;;
72301;SDS011;60235;52.234;5.186;2023-08-12T08:41:56;5.68;;;1.50;;
72301;SDS011;60235;52.234;5.186;2023-08-12T08:44:24;5.47;;;1.40;;
72301;SDS011;60235;52.234;5.186;2023-08-12T08:46:54;8.38;;;1.63;;
72301;SDS011;60235;52.234;5.186;2023-08-12T08:49:21;8.32;;;1.90;;
72301;SDS011;60235;52.234;5.186;2023-08-12T08:51:47;9.20;;;2.30;;
72301;SDS011;60235;52.234;5.186;2023-08-12T08:54:13;6.78;;;1.50;;
72301;SDS011;60235;52.234;5.186;2023-08-12T08:56:39;8.98;;;1.40;;
72301;SDS011;60235;52.234;5.186;2023-08-12T08:59:05;10.25;;;1.75;;
72301;SDS011;60235;52.234;5.186;2023-08-12T09:01:31;8.32;;;1.40;;
72301;SDS011;60235;52.234;5.186;2023-08-12T09:03:59;8.05;;;1.65;;
72301;SDS011;60235;52.234;5.186;2023-08-12T09:06:25;6.95;;;1.70;;
72301;SDS011;60235;52.234;5.186;2023-08-12T09:08:52;9.13;;;1.67;;
72301;SDS011;60235;52.234;5.186;2023-08-12T09:11:18;11.38;;;2.40;;
72301;SDS011;60235;52.234;5.186;2023-08-12T09:13:45;6.55;;;1.73;;
72301;SDS011;60235;52.234;5.186;2023-08-12T09:16:11;6.47;;;1.40;;
72301;SDS011;60235;52.234;5.186;2023-08-12T09:18:37;8.18;;;1.38;;
72301;SDS011;60235;52.234;5.186;2023-08-12T09:21:03;8.57;;;2.20;;
72301;SDS011;60235;52.234;5.186;2023-08-12T09:23:40;9.05;;;1.77;;
72301;SDS011;60235;52.234;5.186;2023-08-12T09:26:19;7.75;;;1.45;;
72301;SDS011;60235;52.234;5.186;2023-08-12T09:28:45;6.78;;;1.50;;
72301;SDS011;60235;52.234;5.186;2023-08-12T09:31:24;9.77;;;2.40;;
72301;SDS011;60235;52.234;5.186;2023-08-12T09:33:51;8.18;;;1.90;;
72301;SDS011;60235;52.234;5.186;2023-08-12T09:36:17;8.82;;;1.70;;
72301;SDS011;60235;52.234;5.186;2023-08-12T09:38:47;8.68;;;1.83;;
72301;SDS011;60235;52.234;5.186;2023-08-12T09:41:13;7.78;;;1.40;;
72301;SDS011;60235;52.234;5.186;2023-08-12T09:43:42;12.65;;;2.40;;
72301;SDS011;60235;52.234;5.186;2023-08-12T09:46:11;9.00;;;1.80;;
72301;SDS011;60235;52.234;5.186;2023-08-12T09:48:38;8.57;;;1.80;;
72301;SDS011;60235;52.234;5.186;2023-08-12T09:51:04;8.82;;;1.40;;
72301;SDS011;60235;52.234;5.186;2023-08-12T09:53:32;7.68;;;1.45;;
72301;SDS011;60235;52.234;5.186;2023-08-12T09:56:00;8.73;;;1.83;;
72301;SDS011;60235;52.234;5.186;2023-08-12T09:58:28;7.38;;;1.55;;
72301;SDS011;60235;52.234;5.186;2023-08-12T10:00:55;8.68;;;1.83;;
72301;SDS011;60235;52.234;5.186;2023-08-12T10:03:22;9.10;;;1.55;;
72301;SDS011;60235;52.234;5.186;2023-08-12T10:05:48;7.70;;;1.50;;
72301;SDS011;60235;52.234;5.186;2023-08-12T10:08:14;11.40;;;1.55;;
72301;SDS011;60235;52.234;5.186;2023-08-12T10:10:41;5.53;;;1.40;;
72301;SDS011;60235;52.234;5.186;2023-08-12T10:13:09;8.23;;;1.63;;
72301;SDS011;60235;52.234;5.186;2023-08-12T10:15:35;8.07;;;1.80;;
72301;SDS011;60235;52.234;5.186;2023-08-12T10:18:02;11.00;;;2.00;;
72301;SDS011;60235;52.234;5.186;2023-08-12T10:20:29;6.88;;;1.55;;
72301;SDS011;60235;52.234;5.186;2023-08-12T10:22:55;8.70;;;1.92;;
72301;SDS011;60235;52.234;5.186;2023-08-12T10:25:21;8.80;;;1.80;;
72301;SDS011;60235;52.234;5.186;2023-08-12T10:27:49;9.30;;;1.67;;
72301;SDS011;60235;52.234;5.186;2023-08-12T10:30:16;7.63;;;1.60;;
72301;SDS011;60235;52.234;5.186;2023-08-12T10:32:42;11.88;;;1.83;;
72301;SDS011;60235;52.234;5.186;2023-08-12T10:35:08;8.10;;;1.77;;
72301;SDS011;60235;52.234;5.186;2023-08-12T10:37:34;6.72;;;1.60;;
72301;SDS011;60235;52.234;5.186;2023-08-12T10:40:04;8.35;;;1.83;;
72301;SDS011;60235;52.234;5.186;2023-08-12T10:42:39;8.88;;;2.08;;
72301;SDS011;60235;52.234;5.186;2023-08-12T10:45:06;9.82;;;2.10;;
72301;SDS011;60235;52.234;5.186;2023-08-12T10:47:32;10.23;;;2.00;;
72301;SDS011;60235;52.234;5.186;2023-08-12T10:49:59;12.48;;;1.90;;
72301;SDS011;60235;52.234;5.186;2023-08-12T10:52:30;7.40;;;1.73;;
72301;SDS011;60235;52.234;5.186;2023-08-12T10:57:42;9.60;;;1.60;;
72301;SDS011;60235;52.234;5.186;2023-08-12T11:00:15;7.43;;;1.60;;
72301;SDS011;60235;52.234;5.186;2023-08-12T11:02:45;7.78;;;1.20;;
72301;SDS011;60235;52.234;5.186;2023-08-12T11:05:12;7.90;;;1.70;;
72301;SDS011;60235;52.234;5.186;2023-08-12T11:07:46;8.65;;;1.50;;
72301;SDS011;60235;52.234;5.186;2023-08-12T11:10:18;12.68;;;1.88;;
72301;SDS011;60235;52.234;5.186;2023-08-12T11:15:17;10.55;;;1.95;;
72301;SDS011;60235;52.234;5.186;2023-08-12T11:17:44;10.50;;;1.45;;
72301;SDS011;60235;52.234;5.186;2023-08-12T11:20:11;7.53;;;1.70;;
72301;SDS011;60235;52.234;5.186;2023-08-12T11:22:39;5.88;;;1.52;;
72301;SDS011;60235;52.234;5.186;2023-08-12T11:25:06;7.22;;;1.50;;
72301;SDS011;60235;52.234;5.186;2023-08-12T11:27:46;9.10;;;1.60;;
72301;SDS011;60235;52.234;5.186;2023-08-12T11:30:16;6.68;;;1.45;;
72301;SDS011;60235;52.234;5.186;2023-08-12T11:32:43;6.95;;;1.52;;
72301;SDS011;60235;52.234;5.186;2023-08-12T11:35:09;6.90;;;1.60;;
72301;SDS011;60235;52.234;5.186;2023-08-12T11:37:39;7.68;;;1.60;;
72301;SDS011;60235;52.234;5.186;2023-08-12T11:40:06;7.53;;;1.98;;
72301;SDS011;60235;52.234;5.186;2023-08-12T11:42:34;9.18;;;1.77;;
72301;SDS011;60235;52.234;5.186;2023-08-12T11:45:00;9.52;;;1.83;;
72301;SDS011;60235;52.234;5.186;2023-08-12T11:47:26;8.90;;;1.83;;
72301;SDS011;60235;52.234;5.186;2023-08-12T11:49:52;7.65;;;1.83;;
72301;SDS011;60235;52.234;5.186;2023-08-12T11:52:19;9.50;;;2.10;;
72301;SDS011;60235;52.234;5.186;2023-08-12T11:54:45;10.52;;;1.73;;
72301;SDS011;60235;52.234;5.186;2023-08-12T11:57:11;8.63;;;1.58;;
72301;SDS011;60235;52.234;5.186;2023-08-12T11:59:37;7.70;;;1.67;;
72301;SDS011;60235;52.234;5.186;2023-08-12T12:02:03;11.25;;;1.90;;
72301;SDS011;60235;52.234;5.186;2023-08-12T12:04:30;7.28;;;1.45;;
72301;SDS011;60235;52.234;5.186;2023-08-12T12:06:57;9.43;;;1.70;;
72301;SDS011;60235;52.234;5.186;2023-08-12T12:09:24;7.72;;;1.70;;
72301;SDS011;60235;52.234;5.186;2023-08-12T12:11:54;7.00;;;1.60;;
72301;SDS011;60235;52.234;5.186;2023-08-12T12:14:20;9.73;;;2.17;;
72301;SDS011;60235;52.234;5.186;2023-08-12T12:16:47;10.05;;;1.75;;
72301;SDS011;60235;52.234;5.186;2023-08-12T12:19:15;8.52;;;1.83;;
72301;SDS011;60235;52.234;5.186;2023-08-12T12:21:41;15.15;;;2.28;;
72301;SDS011;60235;52.234;5.186;2023-08-12T12:24:11;10.68;;;1.80;;
72301;SDS011;60235;52.234;5.186;2023-08-12T12:26:37;7.97;;;1.95;;
72301;SDS011;60235;52.234;5.186;2023-08-12T12:29:03;11.45;;;2.00;;
72301;SDS011;60235;52.234;5.186;2023-08-12T12:31:34;9.20;;;1.80;;
72301;SDS011;60235;52.234;5.186;2023-08-12T12:34:03;7.72;;;1.65;;
72301;SDS011;60235;52.234;5.186;2023-08-12T12:36:30;9.38;;;2.00;;
72301;SDS011;60235;52.234;5.186;2023-08-12T12:38:56;6.57;;;2.00;;
72301;SDS011;60235;52.234;5.186;2023-08-12T12:41:22;13.00;;;1.80;;
72301;SDS011;60235;52.234;5.186;2023-08-12T12:43:48;10.40;;;2.17;;
72301;SDS011;60235;52.234;5.186;2023-08-12T12:46:14;11.45;;;1.90;;
72301;SDS011;60235;52.234;5.186;2023-08-12T12:48:41;9.02;;;1.90;;
72301;SDS011;60235;52.234;5.186;2023-08-12T12:51:07;12.13;;;1.95;;
72301;SDS011;60235;52.234;5.186;2023-08-12T12:53:33;9.15;;;2.08;;
72301;SDS011;60235;52.234;5.186;2023-08-12T12:55:59;9.07;;;1.98;;
72301;SDS011;60235;52.234;5.186;2023-08-12T12:58:32;10.32;;;2.72;;
72301;SDS011;60235;52.234;5.186;2023-08-12T13:00:59;11.52;;;2.10;;
72301;SDS011;60235;52.234;5.186;2023-08-12T13:03:25;11.18;;;1.80;;
72301;SDS011;60235;52.234;5.186;2023-08-12T13:05:51;6.88;;;1.90;;
72301;SDS011;60235;52.234;5.186;2023-08-12T13:08:17;9.68;;;2.08;;
72301;SDS011;60235;52.234;5.186;2023-08-12T13:10:43;7.68;;;1.77;;
72301;SDS011;60235;52.234;5.186;2023-08-12T13:13:09;9.40;;;1.60;;
72301;SDS011;60235;52.234;5.186;2023-08-12T13:15:35;10.77;;;1.70;;
72301;SDS011;60235;52.234;5.186;2023-08-12T13:18:02;13.63;;;1.95;;
72301;SDS011;60235;52.234;5.186;2023-08-12T13:20:28;8.48;;;1.73;;
72301;SDS011;60235;52.234;5.186;2023-08-12T13:22:54;10.18;;;2.13;;
72301;SDS011;60235;52.234;5.186;2023-08-12T13:25:20;8.82;;;1.90;;
72301;SDS011;60235;52.234;5.186;2023-08-12T13:27:46;8.70;;;1.70;;
72301;SDS011;60235;52.234;5.186;2023-08-12T13:30:12;9.50;;;1.58;;
72301;SDS011;60235;52.234;5.186;2023-08-12T13:32:38;8.07;;;1.95;;
72301;SDS011;60235;52.234;5.186;2023-08-12T13:35:04;10.00;;;2.17;;
72301;SDS011;60235;52.234;5.186;2023-08-12T13:37:31;9.45;;;2.00;;
72301;SDS011;60235;52.234;5.186;2023-08-12T13:39:57;8.95;;;1.90;;
72301;SDS011;60235;52.234;5.186;2023-08-12T13:42:23;10.35;;;1.88;;
72301;SDS011;60235;52.234;5.186;2023-08-12T13:44:49;11.70;;;1.73;;
72301;SDS011;60235;52.234;5.186;2023-08-12T13:47:15;12.85;;;2.03;;
72301;SDS011;60235;52.234;5.186;2023-08-12T13:49:41;11.80;;;2.20;;
72301;SDS011;60235;52.234;5.186;2023-08-12T13:52:07;7.18;;;1.70;;
72301;SDS011;60235;52.234;5.186;2023-08-12T13:54:33;10.45;;;2.03;;
72301;SDS011;60235;52.234;5.186;2023-08-12T13:56:59;13.23;;;2.15;;
72301;SDS011;60235;52.234;5.186;2023-08-12T13:59:25;10.02;;;1.83;;
72301;SDS011;60235;52.234;5.186;2023-08-12T14:01:51;10.63;;;2.60;;
72301;SDS011;60235;52.234;5.186;2023-08-12T14:04:17;14.93;;;2.70;;
72301;SDS011;60235;52.234;5.186;2023-08-12T14:06:44;8.75;;;1.90;;
72301;SDS011;60235;52.234;5.186;2023-08-12T14:09:11;10.13;;;1.90;;
72301;SDS011;60235;52.234;5.186;2023-08-12T14:11:39;13.35;;;2.45;;
72301;SDS011;60235;52.234;5.186;2023-08-12T14:14:05;11.60;;;2.13;;
72301;SDS011;60235;52.234;5.186;2023-08-12T14:16:31;11.98;;;2.53;;
72301;SDS011;60235;52.234;5.186;2023-08-12T14:18:57;10.77;;;2.47;;
72301;SDS011;60235;52.234;5.186;2023-08-12T14:21:23;8.70;;;1.80;;
72301;SDS011;60235;52.234;5.186;2023-08-12T14:23:49;11.43;;;2.13;;
72301;SDS011;60235;52.234;5.186;2023-08-12T14:26:15;10.32;;;2.03;;
72301;SDS011;60235;52.234;5.186;2023-08-12T14:28:41;8.75;;;1.90;;
72301;SDS011;60235;52.234;5.186;2023-08-12T14:31:07;10.07;;;2.38;;
72301;SDS011;60235;52.234;5.186;2023-08-12T14:33:33;14.90;;;2.05;;
72301;SDS011;60235;52.234;5.186;2023-08-12T14:35:59;9.45;;;2.47;;
72301;SDS011;60235;52.234;5.186;2023-08-12T14:38:25;8.88;;;2.10;;
72301;SDS011;60235;52.234;5.186;2023-08-12T14:40:51;10.35;;;1.73;;
72301;SDS011;60235;52.234;5.186;2023-08-12T14:43:17;14.95;;;2.35;;
72301;SDS011;60235;52.234;5.186;2023-08-12T14:45:46;10.68;;;1.98;;